STS Fryderyk Chopin — SPS2298 — position and weather

sailwx.info

Track history (hours):
 
Tides and Currents Weather Stations Pressure Air Temp Water Temp Dewpoint Dewpoint Depression Visibility Wind Speed Wind Dir Waves Ship Positions

STS Fryderyk Chopin (Poland)

Ship's website: http://www.fryderykchopin.pl/

Last reported at 2019-Apr-24 03:41 UTC. Time now 2019-Apr-26 04:10 UTC.
Position N 39°23' W 009°55'.

Length 44 m; draft 4.2 m.

Type: Sailing vessel. MMSI: 261000290.

Date/timePositionNaut miles runAvg speedWind from/ knotsBaromVisibWave heightAir tempDewpointWater temp
2019-Apr-24 03:41N 39°23' W 009°55'2 8.5
2019-Apr-24 03:27N 39°21' W 009°55'4 8.7
2019-Apr-24 03:00N 39°17' W 009°54'4 8.3
2019-Apr-24 02:30N 39°13' W 009°53'4 8.0
2019-Apr-24 02:00N 39°10' W 009°51'4 7.7
2019-Apr-24 01:30N 39°06' W 009°50'4 7.3
2019-Apr-24 01:00N 39°03' W 009°48'3 6.3
2019-Apr-24 00:31N 38°60' W 009°46'3 5.6
2019-Apr-24 00:00N 38°57' W 009°45'3 5.9
2019-Apr-23 23:30N 38°54' W 009°44'3 5.6
2019-Apr-23 23:00N 38°52' W 009°42'2 4.7
2019-Apr-23 22:30N 38°50' W 009°41'2 4.2
2019-Apr-23 22:01N 38°48' W 009°40'2 3.3
2019-Apr-23 21:31N 38°46' W 009°39'1 1.2
2019-Apr-23 21:01N 38°46' W 009°39'1 2.8
2019-Apr-23 20:30N 38°44' W 009°38'2 4.1
2019-Apr-23 20:01N 38°42' W 009°38'2 4.8
2019-Apr-23 19:31N 38°41' W 009°35'3 6.0
2019-Apr-23 19:01N 38°41' W 009°31'3 6.3
2019-Apr-23 18:30N 38°41' W 009°27'2 3.1
2019-Apr-23 17:52N 38°42' W 009°25'0 0.0
2019-Apr-23 17:22N 38°42' W 009°25'0 0.0
2019-Apr-23 16:49N 38°42' W 009°25'0 0.0
2019-Apr-23 16:28N 38°42' W 009°25'0 0.0
2019-Apr-23 15:55N 38°42' W 009°25'0 0.0
2019-Apr-23 15:22N 38°42' W 009°25'0 0.0
2019-Apr-23 14:43N 38°42' W 009°25'0 0.3
2019-Apr-23 14:30N 38°42' W 009°25'0 0.2
2019-Apr-23 13:36N 38°42' W 009°25'0 0.1
2019-Apr-23 13:27N 38°42' W 009°25'0 0.0
2019-Apr-23 12:39N 38°42' W 009°25'0 0.1
2019-Apr-23 12:11N 38°42' W 009°25'0 0.0
2019-Apr-23 11:44N 38°42' W 009°25'0 0.0
2019-Apr-23 11:26N 38°42' W 009°25'0 0.0
2019-Apr-23 10:57N 38°42' W 009°25'0 0.0
2019-Apr-23 10:24N 38°42' W 009°25'0 0.0
2019-Apr-23 09:59N 38°42' W 009°25'0 0.1
2019-Apr-23 09:20N 38°42' W 009°25'0 0.0
2019-Apr-23 08:51N 38°42' W 009°25'0 0.0
2019-Apr-23 08:12N 38°42' W 009°25'0 0.0
2019-Apr-23 07:53N 38°42' W 009°25'0 0.6
2019-Apr-23 07:26N 38°42' W 009°24'0 0.0
2019-Apr-23 06:53N 38°42' W 009°24'0 0.1
2019-Apr-23 06:14N 38°42' W 009°24'0 0.0
2019-Apr-23 05:53N 38°42' W 009°24'0 0.1
2019-Apr-23 05:29N 38°42' W 009°24'0 0.0
2019-Apr-23 04:56N 38°42' W 009°24'0 0.0
2019-Apr-23 04:23N 38°42' W 009°24'0 0.0
2019-Apr-23 03:56N 38°42' W 009°24'0 0.0
2019-Apr-23 03:26N 38°42' W 009°24'0 0.0
2019-Apr-23 02:59N 38°42' W 009°24'0 0.0
2019-Apr-23 02:29N 38°42' W 009°24'0 0.0
2019-Apr-23 01:56N 38°42' W 009°24'0 0.0
2019-Apr-23 01:20N 38°42' W 009°24'0 0.0
2019-Apr-23 00:59N 38°42' W 009°24'0 0.0
2019-Apr-23 00:29N 38°42' W 009°24'0 0.0
2019-Apr-22 23:56N 38°42' W 009°24'0 0.0
2019-Apr-22 23:23N 38°42' W 009°24'0 0.0
2019-Apr-22 22:47N 38°42' W 009°24'0 0.0
2019-Apr-22 22:20N 38°42' W 009°24'0 0.0
2019-Apr-22 21:56N 38°42' W 009°24'0 0.0
2019-Apr-22 21:26N 38°42' W 009°24'0 0.0
2019-Apr-22 20:56N 38°42' W 009°24'0 0.0
2019-Apr-22 20:14N 38°42' W 009°24'0 0.1
2019-Apr-22 19:56N 38°42' W 009°24'0 0.0
2019-Apr-22 19:29N 38°42' W 009°24'0 0.1
2019-Apr-22 18:38N 38°42' W 009°24'0 0.0
2019-Apr-22 18:29N 38°42' W 009°24'0 0.0
2019-Apr-22 17:56N 38°42' W 009°24'0 0.0
2019-Apr-22 17:29N 38°42' W 009°24'0 0.0
2019-Apr-22 16:53N 38°42' W 009°24'0 0.0
2019-Apr-22 16:29N 38°42' W 009°24'0 0.0
2019-Apr-22 15:59N 38°42' W 009°24'0 0.0
2019-Apr-22 15:23N 38°42' W 009°24'0 0.0
2019-Apr-22 14:56N 38°42' W 009°24'0 0.0
2019-Apr-22 14:29N 38°42' W 009°24'0 0.0
2019-Apr-22 13:59N 38°42' W 009°24'0 0.0
2019-Apr-22 13:26N 38°42' W 009°24'0 0.0
2019-Apr-22 12:59N 38°42' W 009°24'0 0.0
2019-Apr-22 12:23N 38°42' W 009°24'0 0.0
2019-Apr-22 11:56N 38°42' W 009°24'0 0.0
2019-Apr-22 11:26N 38°42' W 009°24'0 0.1
2019-Apr-22 10:56N 38°42' W 009°24'0 0.0
2019-Apr-22 10:29N 38°42' W 009°24'0 0.0
2019-Apr-22 09:59N 38°42' W 009°24'0 0.0
2019-Apr-22 09:29N 38°42' W 009°24'0 0.0
2019-Apr-22 08:56N 38°42' W 009°24'0 0.0
2019-Apr-22 08:29N 38°42' W 009°24'0 0.0
2019-Apr-22 07:59N 38°42' W 009°24'0 0.0
2019-Apr-22 07:29N 38°42' W 009°24'0 0.0
2019-Apr-22 06:50N 38°42' W 009°24'0 0.0
2019-Apr-22 06:29N 38°42' W 009°24'0 0.0
2019-Apr-22 05:59N 38°42' W 009°24'0 0.0
2019-Apr-22 05:29N 38°42' W 009°24'0 0.0
2019-Apr-22 04:59N 38°42' W 009°24'0 0.1
2019-Apr-22 04:29N 38°42' W 009°24'0 0.0
2019-Apr-22 03:56N 38°42' W 009°24'0 0.0
2019-Apr-22 03:29N 38°42' W 009°24'0 0.0
2019-Apr-22 02:59N 38°42' W 009°24'0 0.0
2019-Apr-22 02:29N 38°42' W 009°24'0 0.0
2019-Apr-22 01:59N 38°42' W 009°24'0 0.0
2019-Apr-22 01:23N 38°42' W 009°24'0 0.1
2019-Apr-22 00:56N 38°42' W 009°24'0 0.1
2019-Apr-22 00:02N 38°42' W 009°24'0 0.2
2019-Apr-21 23:59N 38°42' W 009°24'0 0.0
2019-Apr-21 23:29N 38°42' W 009°24'0 0.0
2019-Apr-21 22:53N 38°42' W 009°24'0 0.0
2019-Apr-21 22:29N 38°42' W 009°24'0 0.0
2019-Apr-21 21:59N 38°42' W 009°24'0 0.0
2019-Apr-21 21:29N 38°42' W 009°24'0 0.0
2019-Apr-21 20:59N 38°42' W 009°24'0 0.0
2019-Apr-21 20:14N 38°42' W 009°24'0 0.0
2019-Apr-21 19:50N 38°42' W 009°24'0 0.7
2019-Apr-21 19:30N 38°42' W 009°25'0 0.0
2019-Apr-21 18:57N 38°42' W 009°25'0 0.0
2019-Apr-21 18:24N 38°42' W 009°25'0 0.0
2019-Apr-21 17:39N 38°42' W 009°25'0 0.0
2019-Apr-21 17:12N 38°42' W 009°25'0 0.0
2019-Apr-21 17:00N 38°42' W 009°25'0 0.1
2019-Apr-21 16:18N 38°42' W 009°25'0 0.1
2019-Apr-21 15:51N 38°42' W 009°25'0 0.0
2019-Apr-21 15:27N 38°42' W 009°25'0 0.1
2019-Apr-21 14:57N 38°42' W 009°25'0 0.0
2019-Apr-21 14:30N 38°42' W 009°25'0 0.0
2019-Apr-21 13:54N 38°42' W 009°25'0 0.2
2019-Apr-21 13:30N 38°42' W 009°25'0 0.1
2019-Apr-21 12:52N 38°42' W 009°25'0 0.0
2019-Apr-21 12:30N 38°42' W 009°25'0 0.6
2019-Apr-21 12:00N 38°42' W 009°24'4 8.5
2019-Apr-21 11:30N 38°39' W 009°28'0 0.4
2019-Apr-21 11:00N 38°39' W 009°28'1 2.9
2019-Apr-21 10:30N 38°37' W 009°28'2 3.3
2019-Apr-21 10:00N 38°36' W 009°27'2 3.0
2019-Apr-21 09:30N 38°34' W 009°26'3 5.2
2019-Apr-21 09:00N 38°32' W 009°25'2 3.0
2019-Apr-21 08:30N 38°31' W 009°24'1 2.9
2019-Apr-21 08:00N 38°29' W 009°23'1 2.4
2019-Apr-21 07:30N 38°28' W 009°22'1 2.8
2019-Apr-21 07:00N 38°27' W 009°21'1 2.2
2019-Apr-21 06:30N 38°27' W 009°20'1 1.9
2019-Apr-21 06:00N 38°26' W 009°19'1 1.6
2019-Apr-21 05:30N 38°26' W 009°18'1 2.4
2019-Apr-21 05:00N 38°25' W 009°17'1 1.6
2019-Apr-21 04:30N 38°24' W 009°16'2 3.3
2019-Apr-21 04:00N 38°23' W 009°14'2 3.5
2019-Apr-21 03:30N 38°23' W 009°12'1 2.8
2019-Apr-21 03:00N 38°23' W 009°11'2 3.0
2019-Apr-21 02:30N 38°22' W 009°09'2 3.6
2019-Apr-21 02:00N 38°21' W 009°08'4 8.4
2019-Apr-21 01:30N 38°16' W 009°10'4 8.6
2019-Apr-21 01:00N 38°12' W 009°11'4 8.9
2019-Apr-21 00:30N 38°08' W 009°12'4 8.7
2019-Apr-21 00:00N 38°04' W 009°14'4 8.3
2019-Apr-20 23:30N 37°60' W 009°15'4 8.3
2019-Apr-20 23:00N 37°56' W 009°16'4 8.1
2019-Apr-20 22:30N 37°52' W 009°17'4 7.7
2019-Apr-20 21:59N 37°48' W 009°19'3 5.6
2019-Apr-20 21:30N 37°45' W 009°19'1 1.1
2019-Apr-20 21:00N 37°46' W 009°19'1 2.4
2019-Apr-20 20:30N 37°46' W 009°21'2 4.3
2019-Apr-20 20:00N 37°46' W 009°23'2 4.7
2019-Apr-20 19:30N 37°45' W 009°26'2 4.0
2019-Apr-20 19:00N 37°45' W 009°29'2 4.2
2019-Apr-20 18:29N 37°45' W 009°32'2 3.9
2019-Apr-20 18:00N 37°44' W 009°34'2 4.4
2019-Apr-20 17:28N 37°43' W 009°36'3 5.3
2019-Apr-20 16:59N 37°42' W 009°39'3 5.9
2019-Apr-20 16:30N 37°40' W 009°42'4 6.1
2019-Apr-20 15:54N 37°38' W 009°46'3 7.2
2019-Apr-20 15:30N 37°36' W 009°49'44 3.9
2019-Apr-20 04:08N 37°01' W 009°16'2 4.7
2019-Apr-20 03:42N 37°00' W 009°14'6 5.7
2019-Apr-20 02:43N 36°59' W 009°07'2 4.2
2019-Apr-20 02:18N 36°58' W 009°05'6 6.4
2019-Apr-20 01:26N 36°58' W 008°58'2 4.4
2019-Apr-20 01:00N 36°59' W 008°55'1 1.3
2019-Apr-20 00:30N 36°59' W 008°55'0 0.7
2019-Apr-20 00:00N 36°60' W 008°54'1 2.4
2019-Apr-19 23:30N 36°60' W 008°53'2 4.1
2019-Apr-19 23:00N 37°00' W 008°51'3 6.5
2019-Apr-19 22:30N 37°01' W 008°47'2 5.0
2019-Apr-19 22:00N 37°02' W 008°44'2 3.9
2019-Apr-19 21:30N 37°03' W 008°41'1 2.7
2019-Apr-19 21:00N 37°04' W 008°40'1 1.5
2019-Apr-19 20:30N 37°04' W 008°40'0 0.3
2019-Apr-19 20:00N 37°04' W 008°40'0 0.6
2019-Apr-19 19:30N 37°05' W 008°40'1 1.4
2019-Apr-19 19:00N 37°05' W 008°40'0 0.0
2019-Apr-19 18:29N 37°05' W 008°40'0 0.1
2019-Apr-19 17:59N 37°05' W 008°40'0 0.0
2019-Apr-19 17:29N 37°05' W 008°40'0 0.1
2019-Apr-19 16:53N 37°05' W 008°40'0 0.1
2019-Apr-19 16:29N 37°05' W 008°40'0 0.1
2019-Apr-19 15:59N 37°05' W 008°40'0 0.0
2019-Apr-19 15:29N 37°05' W 008°40'0 0.0
2019-Apr-19 14:53N 37°06' W 008°40'0 0.0
2019-Apr-19 14:29N 37°06' W 008°40'0 0.0
2019-Apr-19 13:59N 37°06' W 008°40'0 0.0
2019-Apr-19 13:29N 37°05' W 008°40'0 0.0
2019-Apr-19 12:59N 37°05' W 008°40'0 0.0
2019-Apr-19 12:29N 37°05' W 008°40'0 0.0
2019-Apr-19 11:59N 37°05' W 008°40'0 0.0
2019-Apr-19 11:29N 37°05' W 008°40'0 0.0
2019-Apr-19 10:59N 37°05' W 008°40'0 0.0
2019-Apr-19 10:29N 37°05' W 008°40'0 0.0
2019-Apr-19 09:59N 37°05' W 008°40'0 0.0
2019-Apr-19 09:29N 37°05' W 008°40'0 0.0
2019-Apr-19 08:59N 37°05' W 008°40'0 0.0
2019-Apr-19 08:29N 37°05' W 008°40'0 0.0
2019-Apr-19 07:59N 37°05' W 008°40'0 0.1
2019-Apr-19 07:29N 37°05' W 008°40'0 0.8
2019-Apr-19 07:00N 37°05' W 008°39'3 7.1
2019-Apr-19 06:31N 37°06' W 008°35'3 3.7
2019-Apr-19 05:46N 37°07' W 008°32'0 0.0
2019-Apr-19 05:28N 37°07' W 008°32'0 0.0
2019-Apr-19 04:52N 37°07' W 008°32'0 0.0
2019-Apr-19 04:22N 37°07' W 008°32'0 0.0
2019-Apr-19 03:58N 37°07' W 008°32'0 0.0
2019-Apr-19 03:16N 37°07' W 008°32'0 0.0
2019-Apr-19 02:58N 37°07' W 008°32'0 0.0
2019-Apr-19 02:28N 37°07' W 008°32'0 0.0
2019-Apr-19 01:58N 37°07' W 008°32'0 0.0
2019-Apr-19 01:28N 37°07' W 008°32'0 0.0
2019-Apr-19 00:52N 37°07' W 008°32'0 0.0
2019-Apr-19 00:28N 37°07' W 008°32'0 0.0
2019-Apr-18 23:58N 37°07' W 008°32'0 0.0
2019-Apr-18 23:28N 37°07' W 008°32'0 0.0
2019-Apr-18 22:58N 37°07' W 008°32'0 0.0
2019-Apr-18 22:28N 37°07' W 008°32'0 0.0
2019-Apr-18 21:58N 37°07' W 008°32'0 0.0
2019-Apr-18 21:16N 37°07' W 008°32'0 0.0
2019-Apr-18 20:58N 37°07' W 008°32'0 0.0
2019-Apr-18 20:22N 37°07' W 008°32'0 0.0
2019-Apr-18 19:58N 37°07' W 008°32'0 0.0
2019-Apr-18 19:28N 37°07' W 008°32'0 0.0
2019-Apr-18 18:58N 37°07' W 008°32'0 0.0
2019-Apr-18 18:28N 37°07' W 008°32'0 0.0
2019-Apr-18 17:58N 37°07' W 008°32'0 0.0
2019-Apr-18 17:28N 37°07' W 008°32'0 0.0
2019-Apr-18 16:58N 37°07' W 008°32'0 0.0
2019-Apr-18 16:28N 37°07' W 008°32'0 0.0
2019-Apr-18 15:58N 37°07' W 008°32'0 0.0
2019-Apr-18 15:28N 37°07' W 008°32'0 0.0
2019-Apr-18 14:58N 37°07' W 008°32'0 0.0
2019-Apr-18 14:28N 37°07' W 008°32'0 0.0
2019-Apr-18 13:58N 37°07' W 008°32'0 0.0
2019-Apr-18 13:28N 37°07' W 008°32'0 0.0
2019-Apr-18 12:52N 37°07' W 008°32'0 0.0
2019-Apr-18 12:22N 37°07' W 008°32'0 0.0
2019-Apr-18 11:58N 37°07' W 008°32'0 0.0
2019-Apr-18 11:30N 37°07' W 008°32'1 2.0
2019-Apr-18 11:00N 37°06' W 008°31'1 1.3
2019-Apr-18 10:29N 37°06' W 008°31'0 0.4
2019-Apr-18 09:59N 37°06' W 008°31'0 0.3
2019-Apr-18 09:29N 37°06' W 008°31'0 0.2
2019-Apr-18 08:59N 37°06' W 008°31'0 0.2
2019-Apr-18 08:30N 37°05' W 008°31'0 0.2
2019-Apr-18 08:00N 37°06' W 008°31'1 1.9
2019-Apr-18 07:30N 37°05' W 008°30'4 8.1
2019-Apr-18 07:00N 37°03' W 008°26'4 8.5
2019-Apr-18 06:31N 37°01' W 008°21'4 8.1
2019-Apr-18 06:00N 36°59' W 008°17'4 7.9
2019-Apr-18 05:30N 36°57' W 008°12'4 7.7
2019-Apr-18 04:59N 36°55' W 008°08'  
Track history (hours):
 
Tides and Currents Weather Stations Pressure Air Temp Water Temp Dewpoint Dewpoint Depression Visibility Wind Speed Wind Dir Waves Ship Positions

STS Fryderyk Chopin (Poland)

Ship's website: http://www.fryderykchopin.pl/

Last reported at 2019-Apr-24 03:41 UTC. Time now 2019-Apr-26 04:10 UTC.
Position N 39°23' W 009°55'.

Length 44 m; draft 4.2 m.

Type: Sailing vessel. MMSI: 261000290.

Date/timePositionNaut miles runAvg speedWind from/ knotsBaromVisibWave heightAir tempDewpointWater temp
2019-Apr-24 03:41N 39°23' W 009°55'2 8.5
2019-Apr-24 03:27N 39°21' W 009°55'4 8.7
2019-Apr-24 03:00N 39°17' W 009°54'4 8.3
2019-Apr-24 02:30N 39°13' W 009°53'4 8.0
2019-Apr-24 02:00N 39°10' W 009°51'4 7.7
2019-Apr-24 01:30N 39°06' W 009°50'4 7.3
2019-Apr-24 01:00N 39°03' W 009°48'3 6.3
2019-Apr-24 00:31N 38°60' W 009°46'3 5.6
2019-Apr-24 00:00N 38°57' W 009°45'3 5.9
2019-Apr-23 23:30N 38°54' W 009°44'3 5.6
2019-Apr-23 23:00N 38°52' W 009°42'2 4.7
2019-Apr-23 22:30N 38°50' W 009°41'2 4.2
2019-Apr-23 22:01N 38°48' W 009°40'2 3.3
2019-Apr-23 21:31N 38°46' W 009°39'1 1.2
2019-Apr-23 21:01N 38°46' W 009°39'1 2.8
2019-Apr-23 20:30N 38°44' W 009°38'2 4.1
2019-Apr-23 20:01N 38°42' W 009°38'2 4.8
2019-Apr-23 19:31N 38°41' W 009°35'3 6.0
2019-Apr-23 19:01N 38°41' W 009°31'3 6.3
2019-Apr-23 18:30N 38°41' W 009°27'2 3.1
2019-Apr-23 17:52N 38°42' W 009°25'0 0.0
2019-Apr-23 17:22N 38°42' W 009°25'0 0.0
2019-Apr-23 16:49N 38°42' W 009°25'0 0.0
2019-Apr-23 16:28N 38°42' W 009°25'0 0.0
2019-Apr-23 15:55N 38°42' W 009°25'0 0.0
2019-Apr-23 15:22N 38°42' W 009°25'0 0.0
2019-Apr-23 14:43N 38°42' W 009°25'0 0.3
2019-Apr-23 14:30N 38°42' W 009°25'0 0.2
2019-Apr-23 13:36N 38°42' W 009°25'0 0.1
2019-Apr-23 13:27N 38°42' W 009°25'0 0.0
2019-Apr-23 12:39N 38°42' W 009°25'0 0.1
2019-Apr-23 12:11N 38°42' W 009°25'0 0.0
2019-Apr-23 11:44N 38°42' W 009°25'0 0.0
2019-Apr-23 11:26N 38°42' W 009°25'0 0.0
2019-Apr-23 10:57N 38°42' W 009°25'0 0.0
2019-Apr-23 10:24N 38°42' W 009°25'0 0.0
2019-Apr-23 09:59N 38°42' W 009°25'0 0.1
2019-Apr-23 09:20N 38°42' W 009°25'0 0.0
2019-Apr-23 08:51N 38°42' W 009°25'0 0.0
2019-Apr-23 08:12N 38°42' W 009°25'0 0.0
2019-Apr-23 07:53N 38°42' W 009°25'0 0.6
2019-Apr-23 07:26N 38°42' W 009°24'0 0.0
2019-Apr-23 06:53N 38°42' W 009°24'0 0.1
2019-Apr-23 06:14N 38°42' W 009°24'0 0.0
2019-Apr-23 05:53N 38°42' W 009°24'0 0.1
2019-Apr-23 05:29N 38°42' W 009°24'0 0.0
2019-Apr-23 04:56N 38°42' W 009°24'0 0.0
2019-Apr-23 04:23N 38°42' W 009°24'0 0.0
2019-Apr-23 03:56N 38°42' W 009°24'0 0.0
2019-Apr-23 03:26N 38°42' W 009°24'0 0.0
2019-Apr-23 02:59N 38°42' W 009°24'0 0.0
2019-Apr-23 02:29N 38°42' W 009°24'0 0.0
2019-Apr-23 01:56N 38°42' W 009°24'0 0.0
2019-Apr-23 01:20N 38°42' W 009°24'0 0.0
2019-Apr-23 00:59N 38°42' W 009°24'0 0.0
2019-Apr-23 00:29N 38°42' W 009°24'0 0.0
2019-Apr-22 23:56N 38°42' W 009°24'0 0.0
2019-Apr-22 23:23N 38°42' W 009°24'0 0.0
2019-Apr-22 22:47N 38°42' W 009°24'0 0.0
2019-Apr-22 22:20N 38°42' W 009°24'0 0.0
2019-Apr-22 21:56N 38°42' W 009°24'0 0.0
2019-Apr-22 21:26N 38°42' W 009°24'0 0.0
2019-Apr-22 20:56N 38°42' W 009°24'0 0.0
2019-Apr-22 20:14N 38°42' W 009°24'0 0.1
2019-Apr-22 19:56N 38°42' W 009°24'0 0.0
2019-Apr-22 19:29N 38°42' W 009°24'0 0.1
2019-Apr-22 18:38N 38°42' W 009°24'0 0.0
2019-Apr-22 18:29N 38°42' W 009°24'0 0.0
2019-Apr-22 17:56N 38°42' W 009°24'0 0.0
2019-Apr-22 17:29N 38°42' W 009°24'0 0.0
2019-Apr-22 16:53N 38°42' W 009°24'0 0.0
2019-Apr-22 16:29N 38°42' W 009°24'0 0.0
2019-Apr-22 15:59N 38°42' W 009°24'0 0.0
2019-Apr-22 15:23N 38°42' W 009°24'0 0.0
2019-Apr-22 14:56N 38°42' W 009°24'0 0.0
2019-Apr-22 14:29N 38°42' W 009°24'0 0.0
2019-Apr-22 13:59N 38°42' W 009°24'0 0.0
2019-Apr-22 13:26N 38°42' W 009°24'0 0.0
2019-Apr-22 12:59N 38°42' W 009°24'0 0.0
2019-Apr-22 12:23N 38°42' W 009°24'0 0.0
2019-Apr-22 11:56N 38°42' W 009°24'0 0.0
2019-Apr-22 11:26N 38°42' W 009°24'0 0.1
2019-Apr-22 10:56N 38°42' W 009°24'0 0.0
2019-Apr-22 10:29N 38°42' W 009°24'0 0.0
2019-Apr-22 09:59N 38°42' W 009°24'0 0.0
2019-Apr-22 09:29N 38°42' W 009°24'0 0.0
2019-Apr-22 08:56N 38°42' W 009°24'0 0.0
2019-Apr-22 08:29N 38°42' W 009°24'0 0.0
2019-Apr-22 07:59N 38°42' W 009°24'0 0.0
2019-Apr-22 07:29N 38°42' W 009°24'0 0.0
2019-Apr-22 06:50N 38°42' W 009°24'0 0.0
2019-Apr-22 06:29N 38°42' W 009°24'0 0.0
2019-Apr-22 05:59N 38°42' W 009°24'0 0.0
2019-Apr-22 05:29N 38°42' W 009°24'0 0.0
2019-Apr-22 04:59N 38°42' W 009°24'0 0.1
2019-Apr-22 04:29N 38°42' W 009°24'0 0.0
2019-Apr-22 03:56N 38°42' W 009°24'0 0.0
2019-Apr-22 03:29N 38°42' W 009°24'0 0.0
2019-Apr-22 02:59N 38°42' W 009°24'0 0.0
2019-Apr-22 02:29N 38°42' W 009°24'0 0.0
2019-Apr-22 01:59N 38°42' W 009°24'0 0.0
2019-Apr-22 01:23N 38°42' W 009°24'0 0.1
2019-Apr-22 00:56N 38°42' W 009°24'0 0.1
2019-Apr-22 00:02N 38°42' W 009°24'0 0.2
2019-Apr-21 23:59N 38°42' W 009°24'0 0.0
2019-Apr-21 23:29N 38°42' W 009°24'0 0.0
2019-Apr-21 22:53N 38°42' W 009°24'0 0.0
2019-Apr-21 22:29N 38°42' W 009°24'0 0.0
2019-Apr-21 21:59N 38°42' W 009°24'0 0.0
2019-Apr-21 21:29N 38°42' W 009°24'0 0.0
2019-Apr-21 20:59N 38°42' W 009°24'0 0.0
2019-Apr-21 20:14N 38°42' W 009°24'0 0.0
2019-Apr-21 19:50N 38°42' W 009°24'0 0.7
2019-Apr-21 19:30N 38°42' W 009°25'0 0.0
2019-Apr-21 18:57N 38°42' W 009°25'0 0.0
2019-Apr-21 18:24N 38°42' W 009°25'0 0.0
2019-Apr-21 17:39N 38°42' W 009°25'0 0.0
2019-Apr-21 17:12N 38°42' W 009°25'0 0.0
2019-Apr-21 17:00N 38°42' W 009°25'0 0.1
2019-Apr-21 16:18N 38°42' W 009°25'0 0.1
2019-Apr-21 15:51N 38°42' W 009°25'0 0.0
2019-Apr-21 15:27N 38°42' W 009°25'0 0.1
2019-Apr-21 14:57N 38°42' W 009°25'0 0.0
2019-Apr-21 14:30N 38°42' W 009°25'0 0.0
2019-Apr-21 13:54N 38°42' W 009°25'0 0.2
2019-Apr-21 13:30N 38°42' W 009°25'0 0.1
2019-Apr-21 12:52N 38°42' W 009°25'0 0.0
2019-Apr-21 12:30N 38°42' W 009°25'0 0.6
2019-Apr-21 12:00N 38°42' W 009°24'4 8.5
2019-Apr-21 11:30N 38°39' W 009°28'0 0.4
2019-Apr-21 11:00N 38°39' W 009°28'1 2.9
2019-Apr-21 10:30N 38°37' W 009°28'2 3.3
2019-Apr-21 10:00N 38°36' W 009°27'2 3.0
2019-Apr-21 09:30N 38°34' W 009°26'3 5.2
2019-Apr-21 09:00N 38°32' W 009°25'2 3.0
2019-Apr-21 08:30N 38°31' W 009°24'1 2.9
2019-Apr-21 08:00N 38°29' W 009°23'1 2.4
2019-Apr-21 07:30N 38°28' W 009°22'1 2.8
2019-Apr-21 07:00N 38°27' W 009°21'1 2.2
2019-Apr-21 06:30N 38°27' W 009°20'1 1.9
2019-Apr-21 06:00N 38°26' W 009°19'1 1.6
2019-Apr-21 05:30N 38°26' W 009°18'1 2.4
2019-Apr-21 05:00N 38°25' W 009°17'1 1.6
2019-Apr-21 04:30N 38°24' W 009°16'2 3.3
2019-Apr-21 04:00N 38°23' W 009°14'2 3.5
2019-Apr-21 03:30N 38°23' W 009°12'1 2.8
2019-Apr-21 03:00N 38°23' W 009°11'2 3.0
2019-Apr-21 02:30N 38°22' W 009°09'2 3.6
2019-Apr-21 02:00N 38°21' W 009°08'4 8.4
2019-Apr-21 01:30N 38°16' W 009°10'4 8.6
2019-Apr-21 01:00N 38°12' W 009°11'4 8.9
2019-Apr-21 00:30N 38°08' W 009°12'4 8.7
2019-Apr-21 00:00N 38°04' W 009°14'4 8.3
2019-Apr-20 23:30N 37°60' W 009°15'4 8.3
2019-Apr-20 23:00N 37°56' W 009°16'4 8.1
2019-Apr-20 22:30N 37°52' W 009°17'4 7.7
2019-Apr-20 21:59N 37°48' W 009°19'3 5.6
2019-Apr-20 21:30N 37°45' W 009°19'1 1.1
2019-Apr-20 21:00N 37°46' W 009°19'1 2.4
2019-Apr-20 20:30N 37°46' W 009°21'2 4.3
2019-Apr-20 20:00N 37°46' W 009°23'2 4.7
2019-Apr-20 19:30N 37°45' W 009°26'2 4.0
2019-Apr-20 19:00N 37°45' W 009°29'2 4.2
2019-Apr-20 18:29N 37°45' W 009°32'2 3.9
2019-Apr-20 18:00N 37°44' W 009°34'2 4.4
2019-Apr-20 17:28N 37°43' W 009°36'3 5.3
2019-Apr-20 16:59N 37°42' W 009°39'3 5.9
2019-Apr-20 16:30N 37°40' W 009°42'4 6.1
2019-Apr-20 15:54N 37°38' W 009°46'3 7.2
2019-Apr-20 15:30N 37°36' W 009°49'44 3.9
2019-Apr-20 04:08N 37°01' W 009°16'2 4.7
2019-Apr-20 03:42N 37°00' W 009°14'6 5.7
2019-Apr-20 02:43N 36°59' W 009°07'2 4.2
2019-Apr-20 02:18N 36°58' W 009°05'6 6.4
2019-Apr-20 01:26N 36°58' W 008°58'2 4.4
2019-Apr-20 01:00N 36°59' W 008°55'1 1.3
2019-Apr-20 00:30N 36°59' W 008°55'0 0.7
2019-Apr-20 00:00N 36°60' W 008°54'1 2.4
2019-Apr-19 23:30N 36°60' W 008°53'2 4.1
2019-Apr-19 23:00N 37°00' W 008°51'3 6.5
2019-Apr-19 22:30N 37°01' W 008°47'2 5.0
2019-Apr-19 22:00N 37°02' W 008°44'2 3.9
2019-Apr-19 21:30N 37°03' W 008°41'1 2.7
2019-Apr-19 21:00N 37°04' W 008°40'1 1.5
2019-Apr-19 20:30N 37°04' W 008°40'0 0.3
2019-Apr-19 20:00N 37°04' W 008°40'0 0.6
2019-Apr-19 19:30N 37°05' W 008°40'1 1.4
2019-Apr-19 19:00N 37°05' W 008°40'0 0.0
2019-Apr-19 18:29N 37°05' W 008°40'0 0.1
2019-Apr-19 17:59N 37°05' W 008°40'0 0.0
2019-Apr-19 17:29N 37°05' W 008°40'0 0.1
2019-Apr-19 16:53N 37°05' W 008°40'0 0.1
2019-Apr-19 16:29N 37°05' W 008°40'0 0.1
2019-Apr-19 15:59N 37°05' W 008°40'0 0.0
2019-Apr-19 15:29N 37°05' W 008°40'0 0.0
2019-Apr-19 14:53N 37°06' W 008°40'0 0.0
2019-Apr-19 14:29N 37°06' W 008°40'0 0.0
2019-Apr-19 13:59N 37°06' W 008°40'0 0.0
2019-Apr-19 13:29N 37°05' W 008°40'0 0.0
2019-Apr-19 12:59N 37°05' W 008°40'0 0.0
2019-Apr-19 12:29N 37°05' W 008°40'0 0.0
2019-Apr-19 11:59N 37°05' W 008°40'0 0.0
2019-Apr-19 11:29N 37°05' W 008°40'0 0.0
2019-Apr-19 10:59N 37°05' W 008°40'0 0.0
2019-Apr-19 10:29N 37°05' W 008°40'0 0.0
2019-Apr-19 09:59N 37°05' W 008°40'0 0.0
2019-Apr-19 09:29N 37°05' W 008°40'0 0.0
2019-Apr-19 08:59N 37°05' W 008°40'0 0.0
2019-Apr-19 08:29N 37°05' W 008°40'0 0.0
2019-Apr-19 07:59N 37°05' W 008°40'0 0.1
2019-Apr-19 07:29N 37°05' W 008°40'0 0.8
2019-Apr-19 07:00N 37°05' W 008°39'3 7.1
2019-Apr-19 06:31N 37°06' W 008°35'3 3.7
2019-Apr-19 05:46N 37°07' W 008°32'0 0.0
2019-Apr-19 05:28N 37°07' W 008°32'0 0.0
2019-Apr-19 04:52N 37°07' W 008°32'0 0.0
2019-Apr-19 04:22N 37°07' W 008°32'0 0.0
2019-Apr-19 03:58N 37°07' W 008°32'0 0.0
2019-Apr-19 03:16N 37°07' W 008°32'0 0.0
2019-Apr-19 02:58N 37°07' W 008°32'0 0.0
2019-Apr-19 02:28N 37°07' W 008°32'0 0.0
2019-Apr-19 01:58N 37°07' W 008°32'0 0.0
2019-Apr-19 01:28N 37°07' W 008°32'0 0.0
2019-Apr-19 00:52N 37°07' W 008°32'0 0.0
2019-Apr-19 00:28N 37°07' W 008°32'0 0.0
2019-Apr-18 23:58N 37°07' W 008°32'0 0.0
2019-Apr-18 23:28N 37°07' W 008°32'0 0.0
2019-Apr-18 22:58N 37°07' W 008°32'0 0.0
2019-Apr-18 22:28N 37°07' W 008°32'0 0.0
2019-Apr-18 21:58N 37°07' W 008°32'0 0.0
2019-Apr-18 21:16N 37°07' W 008°32'0 0.0
2019-Apr-18 20:58N 37°07' W 008°32'0 0.0
2019-Apr-18 20:22N 37°07' W 008°32'0 0.0
2019-Apr-18 19:58N 37°07' W 008°32'0 0.0
2019-Apr-18 19:28N 37°07' W 008°32'0 0.0
2019-Apr-18 18:58N 37°07' W 008°32'0 0.0
2019-Apr-18 18:28N 37°07' W 008°32'0 0.0
2019-Apr-18 17:58N 37°07' W 008°32'0 0.0
2019-Apr-18 17:28N 37°07' W 008°32'0 0.0
2019-Apr-18 16:58N 37°07' W 008°32'0 0.0
2019-Apr-18 16:28N 37°07' W 008°32'0 0.0
2019-Apr-18 15:58N 37°07' W 008°32'0 0.0
2019-Apr-18 15:28N 37°07' W 008°32'0 0.0
2019-Apr-18 14:58N 37°07' W 008°32'0 0.0
2019-Apr-18 14:28N 37°07' W 008°32'0 0.0
2019-Apr-18 13:58N 37°07' W 008°32'0 0.0
2019-Apr-18 13:28N 37°07' W 008°32'0 0.0
2019-Apr-18 12:52N 37°07' W 008°32'0 0.0
2019-Apr-18 12:22N 37°07' W 008°32'0 0.0
2019-Apr-18 11:58N 37°07' W 008°32'0 0.0
2019-Apr-18 11:30N 37°07' W 008°32'1 2.0
2019-Apr-18 11:00N 37°06' W 008°31'1 1.3
2019-Apr-18 10:29N 37°06' W 008°31'0 0.4
2019-Apr-18 09:59N 37°06' W 008°31'0 0.3
2019-Apr-18 09:29N 37°06' W 008°31'0 0.2
2019-Apr-18 08:59N 37°06' W 008°31'0 0.2
2019-Apr-18 08:30N 37°05' W 008°31'0 0.2
2019-Apr-18 08:00N 37°06' W 008°31'1 1.9
2019-Apr-18 07:30N 37°05' W 008°30'4 8.1
2019-Apr-18 07:00N 37°03' W 008°26'4 8.5
2019-Apr-18 06:31N 37°01' W 008°21'4 8.1
2019-Apr-18 06:00N 36°59' W 008°17'4 7.9
2019-Apr-18 05:30N 36°57' W 008°12'4 7.7
2019-Apr-18 04:59N 36°55' W 008°08'  

Dump ship's entire track history